createdAt,value
2023-05-25T00:01:01.802Z,6.43
2023-05-25T00:02:07.275Z,6.73
2023-05-25T00:03:10.132Z,6.00
2023-05-25T00:04:17.341Z,5.43
2023-05-25T00:05:20.974Z,5.70
2023-05-25T00:06:22.971Z,5.53
2023-05-25T00:07:24.576Z,5.53
2023-05-25T00:08:26.151Z,5.80
2023-05-25T00:09:27.789Z,5.53
2023-05-25T00:10:29.443Z,5.50
2023-05-25T00:11:31.014Z,7.40
2023-05-25T00:12:33.552Z,8.03
2023-05-25T00:13:35.503Z,5.03
2023-05-25T00:14:37.085Z,5.70
2023-05-25T00:15:38.646Z,4.97
2023-05-25T00:16:40.806Z,5.50
2023-05-25T00:17:43.177Z,5.10
2023-05-25T00:18:45.583Z,7.07
2023-05-25T00:19:47.518Z,6.03
2023-05-25T00:20:49.096Z,6.67
2023-05-25T00:21:51.258Z,5.17
2023-05-25T00:22:56.228Z,7.03
2023-05-25T00:23:57.822Z,6.30
2023-05-25T00:24:59.429Z,6.30
2023-05-25T00:26:03.414Z,5.23
2023-05-25T00:27:07.028Z,5.17
2023-05-25T00:28:08.652Z,7.00
2023-05-25T00:29:10.214Z,5.53
2023-05-25T00:30:12.200Z,5.47
2023-05-25T00:31:13.936Z,6.63
2023-05-25T00:32:15.821Z,6.80
2023-05-25T00:33:17.433Z,4.77
2023-05-25T00:34:19.087Z,9.87
2023-05-25T00:35:20.738Z,5.00
2023-05-25T00:36:22.350Z,8.07
2023-05-25T00:37:23.951Z,5.27
2023-05-25T00:38:25.696Z,7.50
2023-05-25T00:39:28.112Z,5.20
2023-05-25T00:40:29.867Z,5.80
2023-05-25T00:41:32.219Z,5.50
2023-05-25T00:42:33.990Z,5.57
2023-05-25T00:43:35.726Z,8.13
2023-05-25T00:44:37.381Z,5.83
2023-05-25T00:45:39.165Z,7.00
2023-05-25T00:46:48.029Z,5.87
2023-05-25T00:47:51.977Z,4.90
2023-05-25T00:48:55.093Z,4.47
2023-05-25T00:49:57.801Z,5.10
2023-05-25T00:51:00.116Z,6.53
2023-05-25T00:52:01.981Z,6.67
2023-05-25T00:53:04.650Z,6.27
2023-05-25T00:54:06.502Z,6.13
2023-05-25T00:55:11.787Z,6.70
2023-05-25T00:56:13.913Z,6.73
2023-05-25T00:57:21.157Z,5.20
2023-05-25T00:58:27.110Z,8.00
2023-05-25T00:59:42.126Z,6.70
2023-05-25T01:00:46.258Z,6.27
2023-05-25T01:01:49.805Z,5.57
2023-05-25T01:02:53.188Z,7.23
2023-05-25T01:03:57.703Z,5.57
2023-05-25T01:05:02.702Z,5.00
2023-05-25T01:06:09.725Z,5.87
2023-05-25T01:07:17.704Z,6.27
2023-05-25T01:08:22.719Z,5.63
2023-05-25T01:09:27.240Z,6.07
2023-05-25T01:10:33.334Z,8.18
2023-05-25T01:11:37.366Z,7.03
2023-05-25T01:12:40.643Z,7.37
2023-05-25T01:13:43.215Z,6.32
2023-05-25T01:14:48.240Z,6.82
2023-05-25T01:15:51.327Z,7.07
2023-05-25T01:16:55.224Z,7.57
2023-05-25T01:17:59.740Z,6.10
2023-05-25T01:19:02.398Z,6.77
2023-05-25T01:20:11.327Z,5.70
2023-05-25T01:21:22.173Z,6.57
2023-05-25T01:22:40.481Z,7.03
2023-05-25T01:23:47.996Z,8.37
2023-05-25T01:24:56.060Z,7.80
2023-05-25T01:26:00.248Z,6.73
2023-05-25T01:27:09.212Z,8.03
2023-05-25T01:28:18.579Z,6.43
2023-05-25T01:29:22.893Z,5.95
2023-05-25T01:30:26.484Z,6.80
2023-05-25T01:31:29.710Z,6.83
2023-05-25T01:32:32.563Z,6.23
2023-05-25T01:33:36.305Z,7.03
2023-05-25T01:34:39.783Z,8.87
2023-05-25T01:35:42.175Z,5.83
2023-05-25T01:36:43.926Z,7.13
2023-05-25T01:37:46.920Z,6.63
2023-05-25T01:38:49.448Z,6.20
2023-05-25T01:39:51.182Z,8.83
2023-05-25T01:40:52.788Z,9.50
2023-05-25T01:41:54.403Z,8.43
2023-05-25T01:42:56.035Z,7.37
2023-05-25T01:43:57.780Z,6.20
2023-05-25T01:45:00.204Z,7.27
2023-05-25T01:46:26.853Z,6.23
2023-05-25T01:47:40.914Z,5.40
2023-05-25T01:48:58.556Z,8.77
2023-05-25T01:50:43.431Z,6.87
2023-05-25T01:51:59.939Z,10.00
2023-05-25T01:53:09.642Z,6.07
2023-05-25T01:54:19.729Z,7.77
2023-05-25T01:55:22.791Z,7.20
2023-05-25T01:56:27.375Z,5.97
2023-05-25T01:57:29.766Z,8.07
2023-05-25T01:58:38.982Z,7.07
2023-05-25T01:59:43.495Z,7.57
2023-05-25T02:00:48.938Z,7.77
2023-05-25T02:01:53.487Z,5.50
2023-05-25T02:02:57.004Z,8.10
2023-05-25T02:03:59.514Z,6.03
2023-05-25T02:05:01.848Z,8.80
2023-05-25T02:06:03.746Z,5.47
2023-05-25T02:07:06.310Z,5.63
2023-05-25T02:08:08.010Z,8.40
2023-05-25T02:09:09.797Z,5.33
2023-05-25T02:10:11.494Z,6.27
2023-05-25T02:11:14.774Z,5.80
2023-05-25T02:12:16.469Z,7.90
2023-05-25T02:13:18.149Z,7.20
2023-05-25T02:14:19.832Z,6.90
2023-05-25T02:15:22.640Z,7.17
2023-05-25T02:16:24.350Z,6.20
2023-05-25T02:17:30.301Z,7.37
2023-05-25T02:18:32.134Z,7.27
2023-05-25T02:19:33.879Z,7.27
2023-05-25T02:20:37.538Z,7.00
2023-05-25T02:21:39.228Z,7.07
2023-05-25T02:22:41.007Z,7.47
2023-05-25T02:23:43.535Z,6.60
2023-05-25T02:24:45.077Z,7.87
2023-05-25T02:25:46.784Z,7.97
2023-05-25T02:26:48.433Z,8.40
2023-05-25T02:27:50.755Z,7.57
2023-05-25T02:28:52.366Z,9.80
2023-05-25T02:29:54.021Z,6.50
2023-05-25T02:30:55.768Z,9.07
2023-05-25T02:31:57.346Z,8.37
2023-05-25T02:32:58.929Z,9.70
2023-05-25T02:34:00.634Z,10.13
2023-05-25T02:35:02.200Z,9.13
2023-05-25T02:36:05.329Z,8.40
2023-05-25T02:37:06.965Z,10.37
2023-05-25T02:38:08.628Z,9.40
2023-05-25T02:39:11.447Z,8.20
2023-05-25T02:40:13.964Z,8.13
2023-05-25T02:41:21.784Z,10.60
2023-05-25T02:42:23.376Z,9.63
2023-05-25T02:43:24.935Z,11.17
2023-05-25T02:44:26.543Z,9.70
2023-05-25T02:45:28.160Z,7.50
2023-05-25T02:46:29.830Z,7.50
2023-05-25T02:47:31.626Z,6.73
2023-05-25T02:48:33.268Z,8.63
2023-05-25T02:49:34.914Z,7.07
2023-05-25T02:50:37.116Z,7.97
2023-05-25T02:51:38.738Z,8.00
2023-05-25T02:52:40.711Z,8.40
2023-05-25T02:53:42.334Z,6.40
2023-05-25T02:54:43.927Z,7.10
2023-05-25T02:55:45.772Z,7.13
2023-05-25T02:56:47.555Z,8.23
2023-05-25T02:57:49.197Z,7.87
2023-05-25T02:58:50.877Z,7.83
2023-05-25T02:59:52.809Z,7.97
2023-05-25T03:00:55.409Z,7.63
2023-05-25T03:01:58.772Z,6.97
2023-05-25T03:03:00.439Z,6.83
2023-05-25T03:04:02.221Z,7.60
2023-05-25T03:05:04.842Z,7.87
2023-05-25T03:06:06.673Z,6.43
2023-05-25T03:07:08.232Z,6.60
2023-05-25T03:08:09.813Z,8.77
2023-05-25T03:09:12.437Z,8.77
2023-05-25T03:10:14.010Z,6.77
2023-05-25T03:11:15.592Z,6.33
2023-05-25T03:12:17.208Z,7.77
2023-05-25T03:13:18.776Z,11.10
2023-05-25T03:14:20.491Z,8.20
2023-05-25T03:15:23.180Z,8.60
2023-05-25T03:16:26.049Z,6.77
2023-05-25T03:17:27.794Z,7.37
2023-05-25T03:18:29.406Z,7.27
2023-05-25T03:19:32.367Z,7.30
2023-05-25T03:20:34.809Z,5.40
2023-05-25T03:21:37.569Z,6.73
2023-05-25T03:22:39.162Z,5.60
2023-05-25T03:23:40.818Z,5.70
2023-05-25T03:24:42.427Z,7.03
2023-05-25T03:25:44.239Z,6.07
2023-05-25T03:26:46.129Z,7.80
2023-05-25T03:27:47.680Z,6.27
2023-05-25T03:28:49.215Z,9.73
2023-05-25T03:29:51.016Z,6.90
2023-05-25T03:30:52.632Z,5.97
2023-05-25T03:31:54.201Z,6.60
2023-05-25T03:32:55.833Z,5.67
2023-05-25T03:33:57.452Z,6.07
2023-05-25T03:34:59.043Z,8.13
2023-05-25T03:36:00.784Z,6.10
2023-05-25T03:37:02.360Z,6.57
2023-05-25T03:38:03.963Z,6.00
2023-05-25T03:39:06.144Z,8.10
2023-05-25T03:40:09.576Z,8.40
2023-05-25T03:41:11.790Z,7.70
2023-05-25T03:42:13.389Z,8.17
2023-05-25T03:43:14.986Z,8.67
2023-05-25T03:44:16.686Z,6.10
2023-05-25T03:45:18.486Z,8.60
2023-05-25T03:46:20.129Z,9.07
2023-05-25T03:47:21.815Z,6.47
2023-05-25T03:48:23.490Z,7.00
2023-05-25T03:49:25.074Z,7.77
2023-05-25T03:50:26.666Z,11.40
2023-05-25T03:51:29.476Z,7.13
2023-05-25T03:52:31.162Z,6.13
2023-05-25T03:53:32.747Z,6.70
2023-05-25T03:54:34.353Z,6.43
2023-05-25T03:55:38.601Z,7.33
2023-05-25T03:56:40.339Z,8.20
2023-05-25T03:57:42.389Z,7.20
2023-05-25T03:58:43.969Z,7.10
2023-05-25T03:59:45.611Z,6.77
2023-05-25T04:00:49.796Z,7.17
2023-05-25T04:01:51.814Z,9.50
2023-05-25T04:02:53.473Z,8.10
2023-05-25T04:03:55.370Z,7.50
2023-05-25T04:04:57.409Z,9.03
2023-05-25T04:06:00.522Z,8.13
2023-05-25T04:07:02.259Z,8.73
2023-05-25T04:08:04.100Z,11.30
2023-05-25T04:09:05.771Z,11.13
2023-05-25T04:10:07.842Z,9.13
2023-05-25T04:11:09.446Z,9.67
2023-05-25T04:12:11.025Z,11.13
2023-05-25T04:13:15.095Z,10.00
2023-05-25T04:14:16.665Z,10.43
2023-05-25T04:15:18.337Z,9.63
2023-05-25T04:16:20.005Z,9.57
2023-05-25T04:17:24.901Z,9.17
2023-05-25T04:18:26.550Z,11.07
2023-05-25T04:19:28.172Z,8.97
2023-05-25T04:20:30.047Z,9.00
2023-05-25T04:21:32.209Z,7.73
2023-05-25T04:22:33.763Z,12.10
2023-05-25T04:23:35.482Z,11.10
2023-05-25T04:24:37.062Z,9.73
2023-05-25T04:25:38.672Z,15.37
2023-05-25T04:26:40.409Z,14.37
2023-05-25T04:27:42.335Z,16.00
2023-05-25T04:28:44.109Z,10.80
2023-05-25T04:29:45.703Z,10.60
2023-05-25T04:30:48.109Z,11.17
2023-05-25T04:31:51.648Z,13.27
2023-05-25T04:32:54.979Z,12.70
2023-05-25T04:33:56.785Z,10.37
2023-05-25T04:34:59.210Z,9.67
2023-05-25T04:36:01.070Z,9.97
2023-05-25T04:37:05.521Z,10.77
2023-05-25T04:38:07.380Z,8.38
2023-05-25T04:39:09.424Z,11.03
2023-05-25T04:40:12.066Z,10.30
2023-05-25T04:41:14.573Z,8.75
2023-05-25T04:42:17.093Z,12.70
2023-05-25T04:43:20.482Z,10.23
2023-05-25T04:44:22.088Z,11.00
2023-05-25T04:45:24.019Z,8.30
2023-05-25T04:46:29.956Z,10.80
2023-05-25T04:47:31.615Z,9.98
2023-05-25T04:48:34.230Z,8.13
2023-05-25T04:49:35.881Z,10.27
2023-05-25T04:50:40.245Z,9.70
2023-05-25T04:51:41.816Z,11.00
2023-05-25T04:52:43.442Z,10.80
2023-05-25T04:53:45.048Z,11.27
2023-05-25T04:54:46.927Z,8.20
2023-05-25T04:55:49.664Z,9.10
2023-05-25T04:56:51.304Z,10.02
2023-05-25T04:57:54.750Z,8.38
2023-05-25T04:58:56.356Z,9.48
2023-05-25T04:59:58.643Z,8.43
2023-05-25T05:01:00.521Z,10.27
2023-05-25T05:02:02.175Z,11.00
2023-05-25T05:03:03.948Z,8.63
2023-05-25T05:04:05.802Z,9.63
2023-05-25T05:05:07.850Z,8.55
2023-05-25T05:06:10.869Z,10.30
2023-05-25T05:07:12.679Z,8.45
2023-05-25T05:08:14.456Z,10.82
2023-05-25T05:09:16.091Z,12.05
2023-05-25T05:10:18.524Z,9.65
2023-05-25T05:11:20.166Z,8.13
2023-05-25T05:12:21.874Z,10.25
2023-05-25T05:13:23.558Z,10.02
2023-05-25T05:14:25.167Z,8.77
2023-05-25T05:15:26.920Z,7.95
2023-05-25T05:16:33.716Z,9.75
2023-05-25T05:17:35.491Z,11.90
2023-05-25T05:18:37.145Z,7.85
2023-05-25T05:19:38.843Z,13.80
2023-05-25T05:20:41.151Z,7.95
2023-05-25T05:21:42.899Z,10.57
2023-05-25T05:22:45.618Z,10.23
2023-05-25T05:23:47.302Z,7.88
2023-05-25T05:24:48.986Z,11.43
2023-05-25T05:25:50.611Z,9.95
2023-05-25T05:26:58.263Z,10.10
2023-05-25T05:28:00.627Z,8.05
2023-05-25T05:29:02.190Z,6.95
2023-05-25T05:30:04.192Z,6.22
2023-05-25T05:31:06.866Z,9.30
2023-05-25T05:32:08.668Z,7.63
2023-05-25T05:33:10.404Z,7.65
2023-05-25T05:34:12.061Z,11.85
2023-05-25T05:35:13.738Z,10.18
2023-05-25T05:36:15.625Z,7.43
2023-05-25T05:37:17.358Z,10.50
2023-05-25T05:38:19.271Z,7.43
2023-05-25T05:39:20.862Z,7.25
2023-05-25T05:40:22.471Z,8.98
2023-05-25T05:41:24.072Z,8.25
2023-05-25T05:42:25.836Z,7.28
2023-05-25T05:43:27.410Z,7.22
2023-05-25T05:44:29.678Z,8.82
2023-05-25T05:45:31.332Z,6.85
2023-05-25T05:46:33.026Z,7.50
2023-05-25T05:47:34.694Z,8.27
2023-05-25T05:48:37.375Z,8.07
2023-05-25T05:49:39.478Z,8.07
2023-05-25T05:50:42.270Z,7.57
2023-05-25T05:51:44.236Z,8.93
2023-05-25T05:52:45.836Z,9.60
2023-05-25T05:53:47.456Z,7.50
2023-05-25T05:54:49.033Z,7.22
2023-05-25T05:55:56.140Z,8.07
2023-05-25T05:56:58.156Z,9.68
2023-05-25T05:57:59.797Z,11.38
2023-05-25T05:59:01.465Z,9.70
2023-05-25T06:00:06.725Z,10.07
2023-05-25T06:01:09.145Z,8.88
2023-05-25T06:02:10.798Z,10.93
2023-05-25T06:03:12.400Z,9.38
2023-05-25T06:04:15.126Z,10.15
2023-05-25T06:05:17.202Z,7.25
2023-05-25T06:06:19.031Z,7.78
2023-05-25T06:07:20.992Z,13.68
2023-05-25T06:08:22.633Z,10.43
2023-05-25T06:09:24.303Z,9.00
2023-05-25T06:10:25.977Z,12.70
2023-05-25T06:11:27.692Z,8.80
2023-05-25T06:12:29.376Z,9.82
2023-05-25T06:13:30.940Z,9.32
2023-05-25T06:14:32.556Z,9.60
2023-05-25T06:15:35.408Z,9.82
2023-05-25T06:16:37.457Z,9.63
2023-05-25T06:17:39.173Z,9.82
2023-05-25T06:18:40.894Z,11.85
2023-05-25T06:19:42.887Z,9.95
2023-05-25T06:20:44.782Z,9.15
2023-05-25T06:21:46.500Z,12.38
2023-05-25T06:22:48.154Z,10.73
2023-05-25T06:23:49.780Z,9.10
2023-05-25T06:24:51.630Z,10.10
2023-05-25T06:25:54.482Z,8.25
2023-05-25T06:26:56.207Z,11.25
2023-05-25T06:27:57.876Z,13.27
2023-05-25T06:28:59.465Z,9.45
2023-05-25T06:30:01.102Z,10.07
2023-05-25T06:31:02.731Z,9.88
2023-05-25T06:32:04.734Z,12.35
2023-05-25T06:33:08.584Z,12.23
2023-05-25T06:34:10.442Z,8.55
2023-05-25T06:35:19.546Z,12.98
2023-05-25T06:36:22.115Z,12.27
2023-05-25T06:37:23.823Z,13.45
2023-05-25T06:38:25.506Z,9.50
2023-05-25T06:39:27.110Z,10.05
2023-05-25T06:40:28.701Z,9.93
2023-05-25T06:41:30.961Z,11.25
2023-05-25T06:42:32.545Z,10.05
2023-05-25T06:43:34.175Z,11.82
2023-05-25T06:44:35.876Z,8.18
2023-05-25T06:45:37.498Z,9.95
2023-05-25T06:46:39.945Z,7.78
2023-05-25T06:47:41.672Z,9.68
2023-05-25T06:48:43.640Z,8.15
2023-05-25T06:49:45.232Z,8.88
2023-05-25T06:50:46.801Z,9.80
2023-05-25T06:51:49.100Z,10.65
2023-05-25T06:52:51.272Z,7.38
2023-05-25T06:53:56.027Z,11.02
2023-05-25T06:54:58.269Z,7.90
2023-05-25T06:55:59.937Z,7.80
2023-05-25T06:57:01.548Z,8.55
2023-05-25T06:58:03.269Z,14.90
2023-05-25T06:59:05.447Z,7.80
2023-05-25T07:00:13.532Z,8.35
2023-05-25T07:01:16.026Z,8.00
2023-05-25T07:02:18.916Z,8.73
2023-05-25T07:03:21.017Z,10.88
2023-05-25T07:04:23.300Z,8.18
2023-05-25T07:05:25.117Z,7.88
2023-05-25T07:06:26.751Z,8.90
2023-05-25T07:07:28.348Z,12.63
2023-05-25T07:08:30.071Z,7.82
2023-05-25T07:09:31.819Z,8.52
2023-05-25T07:10:33.982Z,11.10
2023-05-25T07:11:35.696Z,11.05
2023-05-25T07:12:37.310Z,8.43
2023-05-25T07:13:38.987Z,8.18
2023-05-25T07:14:40.733Z,7.78
2023-05-25T07:15:42.563Z,9.43
2023-05-25T07:16:45.321Z,8.00
2023-05-25T07:17:47.422Z,11.48
2023-05-25T07:18:49.118Z,8.05
2023-05-25T07:19:51.094Z,10.05
2023-05-25T07:20:53.604Z,12.43
2023-05-25T07:21:55.200Z,13.13
2023-05-25T07:22:56.874Z,13.90
2023-05-25T07:23:58.521Z,11.65
2023-05-25T07:25:00.289Z,11.95
2023-05-25T07:26:04.986Z,10.95
2023-05-25T07:27:08.302Z,9.95
2023-05-25T07:28:09.906Z,10.85
2023-05-25T07:29:12.620Z,9.40
2023-05-25T07:30:14.444Z,12.50
2023-05-25T07:31:16.542Z,11.77
2023-05-25T07:32:18.123Z,11.77
2023-05-25T07:33:19.788Z,14.60
2023-05-25T07:34:21.420Z,12.70
2023-05-25T07:35:23.014Z,13.02
2023-05-25T07:36:25.053Z,11.18
2023-05-25T07:37:26.782Z,12.80
2023-05-25T07:38:28.381Z,10.35
2023-05-25T07:39:29.953Z,13.70
2023-05-25T07:40:31.597Z,14.88
2023-05-25T07:41:33.784Z,12.20
2023-05-25T07:42:35.597Z,9.75
2023-05-25T07:43:37.507Z,14.30
2023-05-25T07:44:39.105Z,13.38
2023-05-25T07:45:40.738Z,10.88
2023-05-25T07:46:43.167Z,12.23
2023-05-25T07:47:44.870Z,12.98
2023-05-25T07:48:46.557Z,12.18
2023-05-25T07:49:48.144Z,10.23
2023-05-25T07:50:49.731Z,17.05
2023-05-25T07:51:51.382Z,15.50
2023-05-25T07:52:53.001Z,11.55
2023-05-25T07:53:56.592Z,15.75
2023-05-25T07:54:58.283Z,13.70
2023-05-25T07:55:59.905Z,10.82
2023-05-25T07:57:01.666Z,11.40
2023-05-25T07:58:03.819Z,16.35
2023-05-25T07:59:06.170Z,13.60
2023-05-25T08:00:09.419Z,11.60
2023-05-25T08:01:10.979Z,14.32
2023-05-25T08:02:12.654Z,14.63
2023-05-25T08:03:14.374Z,14.38
2023-05-25T08:04:16.245Z,12.02
2023-05-25T08:05:17.995Z,17.52
2023-05-25T08:06:19.711Z,13.05
2023-05-25T08:07:21.608Z,21.17
2023-05-25T08:08:24.804Z,15.98
2023-05-25T08:09:26.355Z,14.27
2023-05-25T08:10:32.198Z,17.13
2023-05-25T08:11:33.822Z,16.05
2023-05-25T08:12:47.699Z,16.98
2023-05-25T08:13:51.232Z,18.35
2023-05-25T08:14:54.169Z,17.38
2023-05-25T08:15:55.842Z,16.05
2023-05-25T08:16:57.424Z,15.73
2023-05-25T08:17:59.180Z,19.85
2023-05-25T08:19:01.722Z,14.55
2023-05-25T08:20:06.242Z,15.02
2023-05-25T08:21:07.874Z,14.10
2023-05-25T08:22:09.609Z,19.15
2023-05-25T08:23:11.299Z,16.23
2023-05-25T08:24:12.881Z,18.70
2023-05-25T08:25:14.547Z,18.13
2023-05-25T08:26:34.221Z,19.10
2023-05-25T08:27:38.007Z,16.58
2023-05-25T08:28:39.720Z,18.52
2023-05-25T08:29:41.321Z,23.17
2023-05-25T08:30:44.712Z,17.92
2023-05-25T08:31:49.628Z,19.40
2023-05-25T08:32:51.623Z,18.55
2023-05-25T08:33:53.362Z,19.92
2023-05-25T08:34:55.006Z,14.43
2023-05-25T08:35:57.114Z,16.33
2023-05-25T08:36:58.768Z,14.95
2023-05-25T08:38:00.726Z,15.48
2023-05-25T08:39:04.661Z,12.20
2023-05-25T08:40:15.181Z,15.02
2023-05-25T08:41:16.992Z,21.38
2023-05-25T08:42:18.699Z,12.38
2023-05-25T08:43:20.420Z,19.23
2023-05-25T08:44:22.313Z,16.90
2023-05-25T08:45:35.254Z,15.10
2023-05-25T08:46:38.470Z,16.90
2023-05-25T08:47:44.775Z,13.13
2023-05-25T08:48:49.310Z,14.70
2023-05-25T08:49:52.854Z,15.93
2023-05-25T08:50:55.073Z,16.17
2023-05-25T08:51:57.510Z,16.75
2023-05-25T08:53:03.426Z,17.83
2023-05-25T08:54:14.017Z,9.43
2023-05-25T08:55:18.506Z,8.45
2023-05-25T08:56:20.769Z,15.80
2023-05-25T08:57:57.899Z,12.32
2023-05-25T08:59:08.573Z,14.15
2023-05-25T09:00:14.319Z,8.57
2023-05-25T09:01:20.038Z,10.57
2023-05-25T09:02:42.383Z,7.10
2023-05-25T09:03:46.313Z,10.63
2023-05-25T09:04:48.133Z,8.68
2023-05-25T09:05:50.807Z,10.75
2023-05-25T09:07:58.935Z,7.00
2023-05-25T09:09:00.641Z,6.50
2023-05-25T09:10:03.033Z,10.50
2023-05-25T09:11:07.635Z,8.63
2023-05-25T09:12:09.984Z,7.93
2023-05-25T09:13:20.453Z,11.65
2023-05-25T09:14:24.366Z,7.50
2023-05-25T09:15:26.068Z,7.55
2023-05-25T09:16:28.231Z,7.20
2023-05-25T09:17:30.381Z,8.35
2023-05-25T09:18:32.154Z,9.38
2023-05-25T09:19:36.504Z,8.57
2023-05-25T09:20:38.219Z,8.77
2023-05-25T09:21:40.314Z,7.88
2023-05-25T09:22:42.430Z,8.25
2023-05-25T09:23:45.702Z,8.43
2023-05-25T09:24:47.869Z,10.38
2023-05-25T09:25:51.112Z,15.77
2023-05-25T09:26:52.731Z,10.38
2023-05-25T09:27:56.354Z,7.07
2023-05-25T09:28:58.021Z,7.78
2023-05-25T09:30:01.154Z,8.90
2023-05-25T09:31:02.795Z,6.35
2023-05-25T09:32:08.533Z,8.18
2023-05-25T09:33:14.359Z,6.28
2023-05-25T09:34:16.003Z,8.38
2023-05-25T09:35:17.812Z,5.68
2023-05-25T09:36:22.053Z,9.52
2023-05-25T09:37:24.061Z,7.60
2023-05-25T09:38:26.070Z,9.32
2023-05-25T09:39:28.274Z,7.13
2023-05-25T09:40:33.233Z,8.45
2023-05-25T09:41:35.080Z,11.90
2023-05-25T09:42:38.028Z,6.95
2023-05-25T09:43:46.748Z,6.80
2023-05-25T09:44:58.905Z,7.82
2023-05-25T09:46:00.939Z,8.27
2023-05-25T09:47:02.957Z,7.25
2023-05-25T09:48:06.310Z,8.18
2023-05-25T09:49:09.370Z,9.15
2023-05-25T09:50:11.788Z,6.13
2023-05-25T09:51:13.406Z,8.25
2023-05-25T09:52:15.859Z,10.95
2023-05-25T09:53:17.463Z,5.35
2023-05-25T09:54:19.253Z,6.90
2023-05-25T09:55:20.825Z,6.72
2023-05-25T09:56:23.931Z,5.65
2023-05-25T09:57:27.318Z,6.38
2023-05-25T09:58:29.009Z,9.95
2023-05-25T09:59:31.268Z,7.32
2023-05-25T10:00:33.298Z,4.95
2023-05-25T10:01:35.342Z,5.88
2023-05-25T10:02:37.074Z,6.35
2023-05-25T10:04:03.010Z,6.20
2023-05-25T10:05:07.492Z,5.68
2023-05-25T10:06:09.311Z,5.40
2023-05-25T10:07:11.902Z,4.45
2023-05-25T10:08:14.140Z,4.53
2023-05-25T10:09:18.963Z,5.65
2023-05-25T10:10:20.685Z,4.22
2023-05-25T10:11:22.905Z,7.18
2023-05-25T10:12:25.953Z,6.90
2023-05-25T10:13:30.626Z,6.05
2023-05-25T10:14:35.892Z,4.07
2023-05-25T10:15:40.862Z,5.05
2023-05-25T10:16:47.536Z,5.68
2023-05-25T10:17:58.482Z,5.75
2023-05-25T10:19:22.095Z,6.60
2023-05-25T10:20:28.280Z,4.55
2023-05-25T10:21:33.281Z,4.65
2023-05-25T10:22:44.524Z,8.95
2023-05-25T10:23:50.760Z,3.88
2023-05-25T10:25:04.129Z,4.07
2023-05-25T10:26:06.829Z,3.97
2023-05-25T10:27:25.649Z,4.32
2023-05-25T10:28:31.367Z,5.22
2023-05-25T10:29:33.713Z,4.28
2023-05-25T10:30:37.146Z,7.80
2023-05-25T10:31:39.804Z,4.13
2023-05-25T10:32:44.383Z,5.25
2023-05-25T10:33:50.555Z,3.67
2023-05-25T10:34:56.694Z,3.53
2023-05-25T10:36:09.281Z,3.95
2023-05-25T10:37:14.399Z,4.07
2023-05-25T10:38:18.532Z,3.83
2023-05-25T10:39:20.466Z,3.50
2023-05-25T10:40:22.961Z,6.60
2023-05-25T10:41:24.592Z,4.78
2023-05-25T10:42:27.960Z,4.78
2023-05-25T10:43:30.248Z,4.65
2023-05-25T10:44:31.953Z,4.80
2023-05-25T10:45:34.105Z,5.03
2023-05-25T10:46:36.655Z,4.50
2023-05-25T10:47:44.142Z,3.45
2023-05-25T10:48:48.551Z,5.72
2023-05-25T10:49:58.697Z,7.25
2023-05-25T10:51:00.538Z,5.05
2023-05-25T10:52:03.647Z,4.18
2023-05-25T10:53:16.139Z,5.90
2023-05-25T10:54:19.714Z,4.88
2023-05-25T10:55:21.586Z,5.55
2023-05-25T10:56:23.214Z,6.13
2023-05-25T10:57:25.647Z,6.38
2023-05-25T10:58:28.445Z,4.18
2023-05-25T10:59:30.069Z,6.30
2023-05-25T11:00:32.167Z,6.32
2023-05-25T11:01:51.248Z,4.13
2023-05-25T11:02:55.688Z,5.50
2023-05-25T11:04:17.271Z,4.22
2023-05-25T11:05:27.925Z,6.88
2023-05-25T11:06:41.772Z,4.13
2023-05-25T11:07:57.380Z,4.95
2023-05-25T11:09:00.600Z,5.28
2023-05-25T11:10:03.487Z,5.38
2023-05-25T11:11:05.125Z,3.30
2023-05-25T11:12:06.986Z,3.75
2023-05-25T11:13:39.718Z,5.68
2023-05-25T11:14:43.587Z,6.40
2023-05-25T11:15:45.421Z,8.90
2023-05-25T11:17:11.567Z,6.47
2023-05-25T11:18:16.568Z,9.75
2023-05-25T11:19:18.384Z,4.65
2023-05-25T11:20:24.320Z,6.28
2023-05-25T11:21:30.216Z,10.95
2023-05-25T11:22:35.494Z,5.47
2023-05-25T11:23:52.082Z,12.50
2023-05-25T11:24:54.007Z,9.57
2023-05-25T11:26:05.042Z,7.80
2023-05-25T11:27:08.837Z,13.45
2023-05-25T11:28:11.984Z,12.77
2023-05-25T11:29:15.829Z,8.60
2023-05-25T11:30:20.574Z,10.00
2023-05-25T11:31:39.099Z,12.02
2023-05-25T11:32:50.630Z,9.32
2023-05-25T11:33:57.509Z,8.77
2023-05-25T11:34:59.533Z,8.20
2023-05-25T11:36:01.609Z,6.05
2023-05-25T11:37:04.192Z,7.30
2023-05-25T11:38:07.170Z,6.65
2023-05-25T11:39:16.937Z,8.93
2023-05-25T11:40:24.147Z,5.70
2023-05-25T11:41:26.255Z,6.90
2023-05-25T11:42:29.234Z,9.18
2023-05-25T11:43:34.150Z,7.05
2023-05-25T11:44:36.873Z,8.00
2023-05-25T11:45:39.363Z,6.15
2023-05-25T11:46:43.761Z,8.02
2023-05-25T11:47:45.772Z,5.75
2023-05-25T11:48:54.696Z,5.80
2023-05-25T11:49:56.590Z,6.78
2023-05-25T11:51:06.054Z,4.72
2023-05-25T11:52:07.871Z,7.95
2023-05-25T11:53:10.890Z,5.43
2023-05-25T11:54:24.625Z,4.82
2023-05-25T11:55:26.524Z,4.63
2023-05-25T11:56:35.714Z,4.10
2023-05-25T11:57:37.867Z,5.60
2023-05-25T11:58:40.106Z,5.40
2023-05-25T11:59:48.995Z,5.75
2023-05-25T12:00:50.701Z,3.50
2023-05-25T12:02:18.828Z,5.22
2023-05-25T12:03:32.015Z,4.43
2023-05-25T12:04:34.209Z,3.40
2023-05-25T12:05:39.743Z,3.53
2023-05-25T12:06:41.794Z,4.45
2023-05-25T12:07:44.827Z,4.30
2023-05-25T12:08:46.580Z,3.28
2023-05-25T12:09:48.220Z,4.05
2023-05-25T12:10:52.524Z,3.60
2023-05-25T12:11:54.184Z,3.22
2023-05-25T12:12:58.598Z,4.88
2023-05-25T12:14:03.500Z,5.43
2023-05-25T12:15:05.728Z,3.47
2023-05-25T12:16:07.456Z,5.80
2023-05-25T12:17:10.554Z,2.97
2023-05-25T12:18:12.500Z,7.32
2023-05-25T12:19:14.520Z,5.13
2023-05-25T12:20:17.579Z,4.60
2023-05-25T12:21:21.825Z,4.88
2023-05-25T12:22:23.533Z,3.45
2023-05-25T12:23:25.723Z,3.58
2023-05-25T12:24:27.391Z,4.00
2023-05-25T12:25:38.759Z,4.55
2023-05-25T12:26:59.182Z,3.10
2023-05-25T12:28:14.888Z,4.50
2023-05-25T12:29:16.602Z,3.03
2023-05-25T12:30:18.377Z,4.13
2023-05-25T12:31:23.538Z,3.28
2023-05-25T12:32:25.747Z,5.10
2023-05-25T12:33:27.535Z,5.88
2023-05-25T12:34:29.215Z,2.92
2023-05-25T12:35:45.409Z,3.03
2023-05-25T12:36:52.269Z,3.50
2023-05-25T12:38:13.320Z,2.65
2023-05-25T12:39:17.509Z,2.45
2023-05-25T12:40:20.962Z,4.30
2023-05-25T12:41:22.842Z,3.90
2023-05-25T12:42:30.170Z,2.70
2023-05-25T12:43:43.218Z,3.83
2023-05-25T12:44:46.666Z,3.38
2023-05-25T12:45:48.552Z,2.53
2023-05-25T12:46:52.338Z,2.67
2023-05-25T12:47:54.139Z,8.70
2023-05-25T12:48:56.284Z,2.85
2023-05-25T12:50:16.415Z,2.53
2023-05-25T12:51:18.011Z,2.78
2023-05-25T12:52:51.818Z,2.63
2023-05-25T12:53:54.403Z,3.15
2023-05-25T12:54:56.298Z,2.42
2023-05-25T12:56:04.557Z,5.68
2023-05-25T12:57:07.863Z,3.00
2023-05-25T12:58:27.341Z,2.97
2023-05-25T12:59:30.604Z,2.90
2023-05-25T13:00:33.358Z,2.95
2023-05-25T13:01:35.688Z,3.20
2023-05-25T13:02:37.497Z,2.92
2023-05-25T13:03:39.777Z,3.28
2023-05-25T13:04:42.221Z,3.70
2023-05-25T13:05:44.632Z,2.40
2023-05-25T13:06:47.627Z,2.65
2023-05-25T13:07:49.595Z,2.53
2023-05-25T13:08:51.174Z,2.58
2023-05-25T13:09:52.859Z,2.78
2023-05-25T13:10:55.925Z,2.92
2023-05-25T13:11:58.031Z,2.55
2023-05-25T13:13:00.073Z,3.05
2023-05-25T13:14:01.998Z,4.45
2023-05-25T13:15:03.889Z,4.65
2023-05-25T13:16:05.795Z,4.68
2023-05-25T13:17:07.932Z,4.05
2023-05-25T13:18:10.816Z,2.78
2023-05-25T13:19:12.506Z,3.63
2023-05-25T13:20:19.237Z,3.70
2023-05-25T13:21:20.831Z,3.90
2023-05-25T13:22:22.478Z,5.05
2023-05-25T13:23:24.158Z,3.72
2023-05-25T13:24:25.817Z,4.13
2023-05-25T13:25:28.223Z,3.35
2023-05-25T13:26:30.085Z,4.57
2023-05-25T13:27:31.798Z,3.60
2023-05-25T13:28:33.398Z,3.45
2023-05-25T13:29:35.148Z,3.47
2023-05-25T13:30:36.743Z,5.57
2023-05-25T13:31:38.461Z,3.05
2023-05-25T13:32:41.949Z,3.78
2023-05-25T13:33:43.641Z,2.92
2023-05-25T13:34:45.277Z,4.30
2023-05-25T13:35:58.606Z,4.53
2023-05-25T13:37:00.629Z,5.20
2023-05-25T13:38:02.353Z,5.80
2023-05-25T13:39:05.451Z,4.88
2023-05-25T13:40:07.769Z,5.78
2023-05-25T13:41:09.342Z,3.80
2023-05-25T13:42:10.942Z,6.07
2023-05-25T13:43:12.563Z,3.80
2023-05-25T13:44:17.447Z,3.40
2023-05-25T13:45:19.454Z,3.90
2023-05-25T13:46:33.347Z,4.53
2023-05-25T13:47:36.284Z,4.18
2023-05-25T13:48:38.199Z,3.25
2023-05-25T13:49:39.890Z,3.55
2023-05-25T13:50:42.227Z,3.30
2023-05-25T13:51:43.876Z,3.05
2023-05-25T13:52:45.485Z,7.03
2023-05-25T13:53:48.978Z,5.32
2023-05-25T13:54:50.620Z,3.83
2023-05-25T13:55:52.405Z,3.47
2023-05-25T13:56:53.961Z,4.18
2023-05-25T13:57:55.509Z,6.05
2023-05-25T13:58:57.307Z,4.82
2023-05-25T13:59:58.944Z,3.35
2023-05-25T14:01:00.747Z,6.30
2023-05-25T14:02:02.637Z,4.75